Rosebush, Michigan
Current Conditions -  °F | °C
As of 11:15 AM on Wednesday 26 Nov 2014 (Local Time) from KMOP Reporting Station
Light Snow Light Snow  
Wind Chill: 24°   Ceiling: 2600
Heat Index: 29°   Visibility: 10mi
Dew Point: 23°   Wind: 5mph
Humidity: 76%   Direction: 90°E
Pressure: 30.17"   Gusts: NA
Location:  43.7°N, 84.77°W
Report Text: KMOP 261615Z AUTO 09004KT 10SM -SN OVC026 M01/M05 A3017 RMK AO2 T10151052
Loading
Personal Weather Stations






























Interactive Weather Map New forecast layout! Learn more

10-Day Weather Forecast

Advertisements
Track Severe Weather on mobile